ウィーン の空港の天気 - METARとTAF

ウィーン国際空港 ( LOWW / VIE ) - オーストリア ウィーン
飛行場実況気象(Metar)
観測時間05/21 01:20 CEST (05/20 23:20 UTC)
風向・風速東南東 2m/s
視程10km以上
天気現象
なし
気温10℃
湿度94%
気圧1003hPa
METARLOWW 202320Z 12004KT CAVOK 10/09 Q1003 NOSIG
過去の天気等 Google飛行場航空写真 Wunderground天気予報

過去48時間のMETAR

飛行場予報(TAF)
発表時間: 5/21 01:15 CEST (5/20 23:15 UTC)
予報対象時間: 21日2時 CEST ~ 22日8時 CEST
風向・風速南東 3m/s
視程10km以上
なし
21日3時 CEST ~ 21日7時 CEST に 確率 30% で一時的に
視程2000m
天気現象もや
全天の4割程度の雲 雲底高度 120m
全天の4割程度の雲 雲底高度 1220m
21日10時 CEST ~ 21日12時 CEST に徐々に
風向・風速西 5m/s
視程10km以上
全天の4割程度の雲 雲底高度 910m
全天の8割程度の雲 雲底高度 1520m
21日12時 CEST ~ 21日16時 CEST に 確率 30% で一時的に
風向・風速西北西 8m/s 瞬間風速 13m/s
視程8000m
天気現象しゅう雨
全天の8割程度の雲 雲底高度 910m
少しの積乱雲 雲底高度 910m
21日16時 CEST ~ 22日2時 CEST に一時的に
風向・風速西北西 8m/s
視程10km以上
なし
22日2時 CEST ~ 22日8時 CEST に一時的に
天気現象しゅう雨
少しの積乱雲 雲底高度 910m
全天の8割程度の雲 雲底高度 1220m
TAF LOWW 202315Z 2100/2206 13005KT CAVOK TX18/2113Z TN09/2103Z
PROB30 TEMPO 2101/2105 2000 BR SCT004 SCT040
BECMG 2108/2110 28010KT 9999 SCT030 BKN050
PROB30 TEMPO 2110/2114 29015G25KT 8000 SHRA BKN030 FEW030CB
TEMPO 2114/2124 29015KT CAVOK
TEMPO 2200/2206 SHRA FEW030CB BKN040